sensor_id;sensor_type;location;lat;lon;timestamp;temperature;humidity
21590;DHT22;10957;50.968;6.828;2023-07-31T00:00:39;16.90;99.90
21590;DHT22;10957;50.968;6.828;2023-07-31T00:05:41;16.90;99.90
21590;DHT22;10957;50.968;6.828;2023-07-31T00:10:42;16.90;99.90
21590;DHT22;10957;50.968;6.828;2023-07-31T00:15:43;16.90;99.90
21590;DHT22;10957;50.968;6.828;2023-07-31T00:20:45;16.90;99.90
21590;DHT22;10957;50.968;6.828;2023-07-31T00:25:46;16.90;99.90
21590;DHT22;10957;50.968;6.828;2023-07-31T00:30:47;16.90;99.90
21590;DHT22;10957;50.968;6.828;2023-07-31T00:35:48;16.90;99.90
21590;DHT22;10957;50.968;6.828;2023-07-31T00:40:50;16.90;99.90
21590;DHT22;10957;50.968;6.828;2023-07-31T00:45:51;16.90;99.90
21590;DHT22;10957;50.968;6.828;2023-07-31T00:50:52;16.90;99.90
21590;DHT22;10957;50.968;6.828;2023-07-31T00:55:54;16.90;99.90
21590;DHT22;10957;50.968;6.828;2023-07-31T01:00:55;16.90;99.90
21590;DHT22;10957;50.968;6.828;2023-07-31T01:11:19;16.80;99.90
21590;DHT22;10957;50.968;6.828;2023-07-31T01:16:21;16.80;99.90
21590;DHT22;10957;50.968;6.828;2023-07-31T01:26:34;16.80;4.40
21590;DHT22;10957;50.968;6.828;2023-07-31T01:31:36;16.70;1.00
21590;DHT22;10957;50.968;6.828;2023-07-31T01:36:39;16.70;1.00
21590;DHT22;10957;50.968;6.828;2023-07-31T01:41:40;16.60;1.00
21590;DHT22;10957;50.968;6.828;2023-07-31T01:46:42;16.60;1.00
21590;DHT22;10957;50.968;6.828;2023-07-31T01:51:43;16.60;1.00
21590;DHT22;10957;50.968;6.828;2023-07-31T01:56:45;16.60;1.00
21590;DHT22;10957;50.968;6.828;2023-07-31T02:01:46;16.70;1.00
21590;DHT22;10957;50.968;6.828;2023-07-31T02:06:47;16.70;1.00
21590;DHT22;10957;50.968;6.828;2023-07-31T02:11:49;16.70;1.00
21590;DHT22;10957;50.968;6.828;2023-07-31T02:16:50;16.80;1.00
21590;DHT22;10957;50.968;6.828;2023-07-31T02:21:51;16.80;1.00
21590;DHT22;10957;50.968;6.828;2023-07-31T02:26:53;16.80;1.00
21590;DHT22;10957;50.968;6.828;2023-07-31T02:31:54;16.80;1.00
21590;DHT22;10957;50.968;6.828;2023-07-31T02:36:56;16.80;1.00
21590;DHT22;10957;50.968;6.828;2023-07-31T02:41:57;16.80;1.00
21590;DHT22;10957;50.968;6.828;2023-07-31T02:46:58;16.80;1.00
21590;DHT22;10957;50.968;6.828;2023-07-31T02:51:59;16.80;1.00
21590;DHT22;10957;50.968;6.828;2023-07-31T02:57:01;16.80;1.00
21590;DHT22;10957;50.968;6.828;2023-07-31T03:02:03;16.90;1.00
21590;DHT22;10957;50.968;6.828;2023-07-31T03:07:05;16.90;1.00
21590;DHT22;10957;50.968;6.828;2023-07-31T03:12:07;16.80;1.00
21590;DHT22;10957;50.968;6.828;2023-07-31T03:17:09;16.80;1.00
21590;DHT22;10957;50.968;6.828;2023-07-31T03:22:10;16.90;1.00
21590;DHT22;10957;50.968;6.828;2023-07-31T03:27:11;16.90;1.00
21590;DHT22;10957;50.968;6.828;2023-07-31T03:32:12;16.90;1.00
21590;DHT22;10957;50.968;6.828;2023-07-31T03:37:14;16.90;1.00
21590;DHT22;10957;50.968;6.828;2023-07-31T03:42:15;17.00;1.00
21590;DHT22;10957;50.968;6.828;2023-07-31T03:47:16;16.90;1.00
21590;DHT22;10957;50.968;6.828;2023-07-31T03:52:17;16.90;1.00
21590;DHT22;10957;50.968;6.828;2023-07-31T03:57:19;16.90;1.00
21590;DHT22;10957;50.968;6.828;2023-07-31T04:02:20;16.90;1.00
21590;DHT22;10957;50.968;6.828;2023-07-31T04:07:21;16.90;1.00
21590;DHT22;10957;50.968;6.828;2023-07-31T04:12:22;16.90;1.00
21590;DHT22;10957;50.968;6.828;2023-07-31T04:17:24;16.90;1.00
21590;DHT22;10957;50.968;6.828;2023-07-31T04:22:25;16.90;1.00
21590;DHT22;10957;50.968;6.828;2023-07-31T04:27:26;16.90;1.00
21590;DHT22;10957;50.968;6.828;2023-07-31T04:32:27;17.00;1.00
21590;DHT22;10957;50.968;6.828;2023-07-31T04:37:30;16.90;7.20
21590;DHT22;10957;50.968;6.828;2023-07-31T04:42:32;16.90;3.70
21590;DHT22;10957;50.968;6.828;2023-07-31T04:47:36;17.00;1.00
21590;DHT22;10957;50.968;6.828;2023-07-31T04:52:37;17.00;1.00
21590;DHT22;10957;50.968;6.828;2023-07-31T04:57:38;17.10;1.00
21590;DHT22;10957;50.968;6.828;2023-07-31T05:02:40;17.10;1.00
21590;DHT22;10957;50.968;6.828;2023-07-31T05:07:41;17.20;1.00
21590;DHT22;10957;50.968;6.828;2023-07-31T05:12:42;17.20;1.00
21590;DHT22;10957;50.968;6.828;2023-07-31T05:17:44;17.20;1.00
21590;DHT22;10957;50.968;6.828;2023-07-31T05:22:45;17.30;1.00
21590;DHT22;10957;50.968;6.828;2023-07-31T05:27:46;17.30;1.00
21590;DHT22;10957;50.968;6.828;2023-07-31T05:32:47;17.40;1.00
21590;DHT22;10957;50.968;6.828;2023-07-31T05:37:49;17.40;1.00
21590;DHT22;10957;50.968;6.828;2023-07-31T05:42:50;17.40;1.00
21590;DHT22;10957;50.968;6.828;2023-07-31T05:47:51;17.30;1.00
21590;DHT22;10957;50.968;6.828;2023-07-31T05:52:53;17.30;1.00
21590;DHT22;10957;50.968;6.828;2023-07-31T05:57:54;17.20;1.00
21590;DHT22;10957;50.968;6.828;2023-07-31T06:02:56;17.30;1.00
21590;DHT22;10957;50.968;6.828;2023-07-31T06:07:57;17.30;1.00
21590;DHT22;10957;50.968;6.828;2023-07-31T06:12:58;17.20;1.00
21590;DHT22;10957;50.968;6.828;2023-07-31T06:18:00;17.20;1.00
21590;DHT22;10957;50.968;6.828;2023-07-31T06:23:03;17.10;1.00
21590;DHT22;10957;50.968;6.828;2023-07-31T06:28:04;17.20;1.00
21590;DHT22;10957;50.968;6.828;2023-07-31T06:33:06;17.20;1.00
21590;DHT22;10957;50.968;6.828;2023-07-31T06:38:07;17.30;1.00
21590;DHT22;10957;50.968;6.828;2023-07-31T06:43:08;17.30;1.00
21590;DHT22;10957;50.968;6.828;2023-07-31T06:48:10;17.40;1.00
21590;DHT22;10957;50.968;6.828;2023-07-31T06:53:11;17.60;1.50
21590;DHT22;10957;50.968;6.828;2023-07-31T06:58:12;17.80;2.60
21590;DHT22;10957;50.968;6.828;2023-07-31T07:03:14;17.90;14.30
21590;DHT22;10957;50.968;6.828;2023-07-31T07:08:15;17.90;1.00
21590;DHT22;10957;50.968;6.828;2023-07-31T07:13:21;17.80;1.00
21590;DHT22;10957;50.968;6.828;2023-07-31T07:18:22;17.90;1.00
21590;DHT22;10957;50.968;6.828;2023-07-31T07:23:24;18.00;8.30
21590;DHT22;10957;50.968;6.828;2023-07-31T07:28:25;17.90;1.00
21590;DHT22;10957;50.968;6.828;2023-07-31T07:33:27;17.70;1.00
21590;DHT22;10957;50.968;6.828;2023-07-31T07:38:28;17.80;1.00
21590;DHT22;10957;50.968;6.828;2023-07-31T07:43:29;17.70;1.00
21590;DHT22;10957;50.968;6.828;2023-07-31T07:48:32;17.60;1.00
21590;DHT22;10957;50.968;6.828;2023-07-31T07:53:33;17.50;1.00
21590;DHT22;10957;50.968;6.828;2023-07-31T07:58:34;17.50;1.00
21590;DHT22;10957;50.968;6.828;2023-07-31T08:03:36;17.50;1.00
21590;DHT22;10957;50.968;6.828;2023-07-31T08:08:37;17.40;1.00
21590;DHT22;10957;50.968;6.828;2023-07-31T08:13:39;17.60;1.00
21590;DHT22;10957;50.968;6.828;2023-07-31T08:18:40;17.50;1.00
21590;DHT22;10957;50.968;6.828;2023-07-31T08:23:43;17.40;1.00
21590;DHT22;10957;50.968;6.828;2023-07-31T08:28:45;17.60;1.00
21590;DHT22;10957;50.968;6.828;2023-07-31T08:33:46;17.60;1.00
21590;DHT22;10957;50.968;6.828;2023-07-31T08:38:47;17.70;1.00
21590;DHT22;10957;50.968;6.828;2023-07-31T08:43:51;17.80;1.00
21590;DHT22;10957;50.968;6.828;2023-07-31T08:48:53;17.70;1.00
21590;DHT22;10957;50.968;6.828;2023-07-31T08:53:55;17.80;1.00
21590;DHT22;10957;50.968;6.828;2023-07-31T08:59:00;17.90;1.00
21590;DHT22;10957;50.968;6.828;2023-07-31T09:04:04;18.00;1.00
21590;DHT22;10957;50.968;6.828;2023-07-31T09:09:09;18.20;1.00
21590;DHT22;10957;50.968;6.828;2023-07-31T09:14:11;18.00;1.00
21590;DHT22;10957;50.968;6.828;2023-07-31T09:19:14;18.20;1.00
21590;DHT22;10957;50.968;6.828;2023-07-31T09:24:30;17.90;1.00
21590;DHT22;10957;50.968;6.828;2023-07-31T09:29:32;18.30;1.00
21590;DHT22;10957;50.968;6.828;2023-07-31T09:34:39;18.60;1.00
21590;DHT22;10957;50.968;6.828;2023-07-31T09:39:47;18.70;1.00
21590;DHT22;10957;50.968;6.828;2023-07-31T09:44:49;18.80;99.90
21590;DHT22;10957;50.968;6.828;2023-07-31T09:49:50;19.10;99.90
21590;DHT22;10957;50.968;6.828;2023-07-31T09:54:52;19.00;99.90
21590;DHT22;10957;50.968;6.828;2023-07-31T09:59:54;19.10;99.90
21590;DHT22;10957;50.968;6.828;2023-07-31T10:04:57;19.40;99.90
21590;DHT22;10957;50.968;6.828;2023-07-31T10:10:02;19.20;99.90
21590;DHT22;10957;50.968;6.828;2023-07-31T10:15:05;19.40;99.90
21590;DHT22;10957;50.968;6.828;2023-07-31T10:20:07;19.40;99.90
21590;DHT22;10957;50.968;6.828;2023-07-31T10:25:09;19.40;99.90
21590;DHT22;10957;50.968;6.828;2023-07-31T10:30:16;19.40;99.90
21590;DHT22;10957;50.968;6.828;2023-07-31T10:35:18;19.60;99.90
21590;DHT22;10957;50.968;6.828;2023-07-31T10:40:25;19.40;99.90
21590;DHT22;10957;50.968;6.828;2023-07-31T10:45:35;19.20;99.90
21590;DHT22;10957;50.968;6.828;2023-07-31T10:50:46;19.20;99.90
21590;DHT22;10957;50.968;6.828;2023-07-31T10:55:49;19.40;99.90
21590;DHT22;10957;50.968;6.828;2023-07-31T11:00:57;19.50;99.90
21590;DHT22;10957;50.968;6.828;2023-07-31T11:06:01;19.30;99.90
21590;DHT22;10957;50.968;6.828;2023-07-31T11:11:07;19.10;99.90
21590;DHT22;10957;50.968;6.828;2023-07-31T11:16:09;19.20;99.90
21590;DHT22;10957;50.968;6.828;2023-07-31T11:21:16;19.60;99.90
21590;DHT22;10957;50.968;6.828;2023-07-31T11:26:19;19.80;99.90
21590;DHT22;10957;50.968;6.828;2023-07-31T11:31:20;20.00;99.90
21590;DHT22;10957;50.968;6.828;2023-07-31T11:36:22;20.40;99.90
21590;DHT22;10957;50.968;6.828;2023-07-31T11:41:23;20.80;99.90
21590;DHT22;10957;50.968;6.828;2023-07-31T11:46:24;21.20;21.50
21590;DHT22;10957;50.968;6.828;2023-07-31T11:51:27;21.00;1.00
21590;DHT22;10957;50.968;6.828;2023-07-31T11:56:30;21.20;1.00
21590;DHT22;10957;50.968;6.828;2023-07-31T12:01:35;20.70;1.00
21590;DHT22;10957;50.968;6.828;2023-07-31T12:06:37;20.30;1.00
21590;DHT22;10957;50.968;6.828;2023-07-31T12:11:46;20.00;1.00
21590;DHT22;10957;50.968;6.828;2023-07-31T12:16:48;20.00;1.00
21590;DHT22;10957;50.968;6.828;2023-07-31T12:21:57;20.20;1.00
21590;DHT22;10957;50.968;6.828;2023-07-31T12:26:59;20.10;1.00
21590;DHT22;10957;50.968;6.828;2023-07-31T12:32:00;19.90;1.00
21590;DHT22;10957;50.968;6.828;2023-07-31T12:37:05;20.10;1.00
21590;DHT22;10957;50.968;6.828;2023-07-31T12:42:12;20.30;1.00
21590;DHT22;10957;50.968;6.828;2023-07-31T12:47:13;20.30;1.00
21590;DHT22;10957;50.968;6.828;2023-07-31T12:52:16;20.20;1.00
21590;DHT22;10957;50.968;6.828;2023-07-31T12:57:18;20.20;1.00
21590;DHT22;10957;50.968;6.828;2023-07-31T13:02:21;20.50;1.00
21590;DHT22;10957;50.968;6.828;2023-07-31T13:07:22;20.70;1.00
21590;DHT22;10957;50.968;6.828;2023-07-31T13:12:24;20.50;1.00
21590;DHT22;10957;50.968;6.828;2023-07-31T13:17:25;20.50;1.00
21590;DHT22;10957;50.968;6.828;2023-07-31T13:22:27;20.40;1.00
21590;DHT22;10957;50.968;6.828;2023-07-31T13:27:28;20.60;1.00
21590;DHT22;10957;50.968;6.828;2023-07-31T13:32:30;20.50;1.00
21590;DHT22;10957;50.968;6.828;2023-07-31T13:37:33;20.70;1.00
21590;DHT22;10957;50.968;6.828;2023-07-31T13:42:34;20.80;1.00
21590;DHT22;10957;50.968;6.828;2023-07-31T13:47:36;20.80;1.00
21590;DHT22;10957;50.968;6.828;2023-07-31T13:52:38;21.10;1.00
21590;DHT22;10957;50.968;6.828;2023-07-31T13:57:39;21.70;1.00
21590;DHT22;10957;50.968;6.828;2023-07-31T14:02:40;22.60;1.00
21590;DHT22;10957;50.968;6.828;2023-07-31T14:07:42;22.90;1.00
21590;DHT22;10957;50.968;6.828;2023-07-31T14:12:43;22.10;1.00
21590;DHT22;10957;50.968;6.828;2023-07-31T14:17:48;21.70;1.00
21590;DHT22;10957;50.968;6.828;2023-07-31T14:22:49;21.20;1.00
21590;DHT22;10957;50.968;6.828;2023-07-31T14:27:53;20.90;1.00
21590;DHT22;10957;50.968;6.828;2023-07-31T14:32:55;20.60;1.00
21590;DHT22;10957;50.968;6.828;2023-07-31T14:37:56;20.40;1.00
21590;DHT22;10957;50.968;6.828;2023-07-31T14:42:58;20.40;1.00
21590;DHT22;10957;50.968;6.828;2023-07-31T14:47:59;20.70;1.00
21590;DHT22;10957;50.968;6.828;2023-07-31T14:53:00;20.90;1.00
21590;DHT22;10957;50.968;6.828;2023-07-31T14:58:02;20.70;1.00
21590;DHT22;10957;50.968;6.828;2023-07-31T15:03:04;20.60;1.00
21590;DHT22;10957;50.968;6.828;2023-07-31T15:08:05;20.40;1.00
21590;DHT22;10957;50.968;6.828;2023-07-31T15:13:06;20.30;1.00
21590;DHT22;10957;50.968;6.828;2023-07-31T15:18:08;20.30;1.00
21590;DHT22;10957;50.968;6.828;2023-07-31T15:23:09;20.40;1.00
21590;DHT22;10957;50.968;6.828;2023-07-31T15:28:10;20.30;1.00
21590;DHT22;10957;50.968;6.828;2023-07-31T15:33:12;20.20;1.00
21590;DHT22;10957;50.968;6.828;2023-07-31T15:38:13;20.10;1.00
21590;DHT22;10957;50.968;6.828;2023-07-31T15:43:19;20.10;1.00
21590;DHT22;10957;50.968;6.828;2023-07-31T15:48:21;20.00;1.00
21590;DHT22;10957;50.968;6.828;2023-07-31T15:53:22;19.90;1.00
21590;DHT22;10957;50.968;6.828;2023-07-31T15:58:24;19.50;1.00
21590;DHT22;10957;50.968;6.828;2023-07-31T16:03:25;19.20;19.10
21590;DHT22;10957;50.968;6.828;2023-07-31T16:08:30;19.00;99.90
21590;DHT22;10957;50.968;6.828;2023-07-31T16:13:31;18.80;99.90
21590;DHT22;10957;50.968;6.828;2023-07-31T16:18:32;18.70;99.90
21590;DHT22;10957;50.968;6.828;2023-07-31T16:23:34;18.70;99.90
21590;DHT22;10957;50.968;6.828;2023-07-31T16:28:46;18.70;1.00
21590;DHT22;10957;50.968;6.828;2023-07-31T16:33:51;18.70;1.00
21590;DHT22;10957;50.968;6.828;2023-07-31T16:38:53;18.60;1.00
21590;DHT22;10957;50.968;6.828;2023-07-31T16:43:54;18.60;1.00
21590;DHT22;10957;50.968;6.828;2023-07-31T16:48:56;18.30;1.00
21590;DHT22;10957;50.968;6.828;2023-07-31T16:54:00;18.40;1.00
21590;DHT22;10957;50.968;6.828;2023-07-31T16:59:06;18.40;1.00
21590;DHT22;10957;50.968;6.828;2023-07-31T17:04:18;18.60;1.00
21590;DHT22;10957;50.968;6.828;2023-07-31T17:09:20;18.50;1.00
21590;DHT22;10957;50.968;6.828;2023-07-31T17:14:21;18.50;1.00
21590;DHT22;10957;50.968;6.828;2023-07-31T17:19:39;18.50;1.00
21590;DHT22;10957;50.968;6.828;2023-07-31T17:24:41;18.50;1.00
21590;DHT22;10957;50.968;6.828;2023-07-31T17:29:42;18.40;1.00
21590;DHT22;10957;50.968;6.828;2023-07-31T17:34:44;18.40;31.50
21590;DHT22;10957;50.968;6.828;2023-07-31T17:39:47;18.50;68.80
21590;DHT22;10957;50.968;6.828;2023-07-31T17:44:49;18.50;98.90
21590;DHT22;10957;50.968;6.828;2023-07-31T17:49:50;18.40;99.90
21590;DHT22;10957;50.968;6.828;2023-07-31T17:54:51;18.40;99.90
21590;DHT22;10957;50.968;6.828;2023-07-31T17:59:55;18.40;99.90
21590;DHT22;10957;50.968;6.828;2023-07-31T18:04:56;18.40;99.90
21590;DHT22;10957;50.968;6.828;2023-07-31T18:09:57;18.40;99.90
21590;DHT22;10957;50.968;6.828;2023-07-31T18:15:01;18.50;99.90
21590;DHT22;10957;50.968;6.828;2023-07-31T18:20:02;18.40;99.90
21590;DHT22;10957;50.968;6.828;2023-07-31T18:25:05;18.40;99.90
21590;DHT22;10957;50.968;6.828;2023-07-31T18:30:08;18.40;99.90
21590;DHT22;10957;50.968;6.828;2023-07-31T18:35:10;18.40;99.90
21590;DHT22;10957;50.968;6.828;2023-07-31T18:40:11;18.40;99.90
21590;DHT22;10957;50.968;6.828;2023-07-31T18:45:12;18.30;99.90
21590;DHT22;10957;50.968;6.828;2023-07-31T18:50:14;18.30;99.90
21590;DHT22;10957;50.968;6.828;2023-07-31T18:55:15;18.30;99.90
21590;DHT22;10957;50.968;6.828;2023-07-31T19:00:16;18.20;99.90
21590;DHT22;10957;50.968;6.828;2023-07-31T19:05:18;18.30;99.90
21590;DHT22;10957;50.968;6.828;2023-07-31T19:10:21;18.20;99.90
21590;DHT22;10957;50.968;6.828;2023-07-31T19:15:23;18.30;99.90
21590;DHT22;10957;50.968;6.828;2023-07-31T19:20:24;18.20;99.90
21590;DHT22;10957;50.968;6.828;2023-07-31T19:25:25;18.20;99.90
21590;DHT22;10957;50.968;6.828;2023-07-31T19:30:27;18.20;99.90
21590;DHT22;10957;50.968;6.828;2023-07-31T19:35:28;18.20;99.90
21590;DHT22;10957;50.968;6.828;2023-07-31T19:40:29;18.20;99.90
21590;DHT22;10957;50.968;6.828;2023-07-31T19:45:30;18.20;99.90
21590;DHT22;10957;50.968;6.828;2023-07-31T19:50:32;18.10;99.90
21590;DHT22;10957;50.968;6.828;2023-07-31T19:55:34;18.20;99.90
21590;DHT22;10957;50.968;6.828;2023-07-31T20:00:35;18.20;99.90
21590;DHT22;10957;50.968;6.828;2023-07-31T20:05:36;18.20;99.90
21590;DHT22;10957;50.968;6.828;2023-07-31T20:10:38;18.20;99.90
21590;DHT22;10957;50.968;6.828;2023-07-31T20:15:39;18.20;99.90
21590;DHT22;10957;50.968;6.828;2023-07-31T20:20:41;18.20;99.90
21590;DHT22;10957;50.968;6.828;2023-07-31T20:25:42;18.20;99.90
21590;DHT22;10957;50.968;6.828;2023-07-31T20:30:44;18.30;99.90
21590;DHT22;10957;50.968;6.828;2023-07-31T20:35:46;18.20;99.90
21590;DHT22;10957;50.968;6.828;2023-07-31T20:40:50;18.30;99.90
21590;DHT22;10957;50.968;6.828;2023-07-31T20:45:53;18.30;99.90
21590;DHT22;10957;50.968;6.828;2023-07-31T20:50:58;18.30;99.90
21590;DHT22;10957;50.968;6.828;2023-07-31T20:55:59;18.30;99.90
21590;DHT22;10957;50.968;6.828;2023-07-31T21:01:01;18.30;99.90
21590;DHT22;10957;50.968;6.828;2023-07-31T21:06:02;18.30;99.90
21590;DHT22;10957;50.968;6.828;2023-07-31T21:11:03;18.30;99.90
21590;DHT22;10957;50.968;6.828;2023-07-31T21:16:05;18.30;99.90
21590;DHT22;10957;50.968;6.828;2023-07-31T21:21:06;18.40;99.90
21590;DHT22;10957;50.968;6.828;2023-07-31T21:26:08;18.40;99.90
21590;DHT22;10957;50.968;6.828;2023-07-31T21:31:14;18.40;99.90
21590;DHT22;10957;50.968;6.828;2023-07-31T21:36:15;18.40;99.90
21590;DHT22;10957;50.968;6.828;2023-07-31T21:41:17;18.40;99.90
21590;DHT22;10957;50.968;6.828;2023-07-31T21:46:18;18.40;99.90
21590;DHT22;10957;50.968;6.828;2023-07-31T21:51:20;18.40;99.90
21590;DHT22;10957;50.968;6.828;2023-07-31T21:56:21;18.40;99.90
21590;DHT22;10957;50.968;6.828;2023-07-31T22:01:22;18.50;99.90
21590;DHT22;10957;50.968;6.828;2023-07-31T22:06:24;18.40;99.90
21590;DHT22;10957;50.968;6.828;2023-07-31T22:11:25;18.50;99.90
21590;DHT22;10957;50.968;6.828;2023-07-31T22:16:26;18.50;99.90
21590;DHT22;10957;50.968;6.828;2023-07-31T22:21:27;18.50;99.90
21590;DHT22;10957;50.968;6.828;2023-07-31T22:26:29;18.50;99.90
21590;DHT22;10957;50.968;6.828;2023-07-31T22:31:30;18.50;99.90
21590;DHT22;10957;50.968;6.828;2023-07-31T22:36:31;18.50;99.90
21590;DHT22;10957;50.968;6.828;2023-07-31T22:41:32;18.50;99.90
21590;DHT22;10957;50.968;6.828;2023-07-31T22:46:34;18.50;99.90
21590;DHT22;10957;50.968;6.828;2023-07-31T22:51:35;18.50;99.90
21590;DHT22;10957;50.968;6.828;2023-07-31T22:56:37;18.50;99.90
21590;DHT22;10957;50.968;6.828;2023-07-31T23:01:38;18.50;99.90
21590;DHT22;10957;50.968;6.828;2023-07-31T23:06:39;18.60;99.90
21590;DHT22;10957;50.968;6.828;2023-07-31T23:11:41;18.60;99.90
21590;DHT22;10957;50.968;6.828;2023-07-31T23:16:51;18.60;99.90
21590;DHT22;10957;50.968;6.828;2023-07-31T23:21:53;18.60;99.90
21590;DHT22;10957;50.968;6.828;2023-07-31T23:26:54;18.60;99.90
21590;DHT22;10957;50.968;6.828;2023-07-31T23:31:55;18.70;99.90
21590;DHT22;10957;50.968;6.828;2023-07-31T23:36:57;18.60;99.90
21590;DHT22;10957;50.968;6.828;2023-07-31T23:41:58;18.70;99.90
21590;DHT22;10957;50.968;6.828;2023-07-31T23:46:59;18.70;99.90
21590;DHT22;10957;50.968;6.828;2023-07-31T23:52:00;18.70;99.90
21590;DHT22;10957;50.968;6.828;2023-07-31T23:57:02;18.70;99.90
